DEDAF EDLV-EHEH
Flight info
| Callsign | DEDAF |
|---|---|
| Flight time | 0h 12m |
| Altitude | 8000 |
| Route | DCT |
| Aircraft | BT36/L-BDFGLORY/S |
Departure
| Time | 2026-05-03 20:15 |
|---|---|
| Airport | Weeze (Niederrhein) Airport (EDLV) |
Arrival
| Time | 2026-05-03 20:27 |
|---|---|
| Airport | Eindhoven Airport (EHEH) |
| Time | Latitude | Longitude | Altitude | Speed | Heading |
|---|---|---|---|---|---|
| 2026-05-03 20:15 | 51.60164 | 6.11482 | 1020 ft | 140 kts | 239° |
| 2026-05-03 20:15 | 51.59579 | 6.10180 | 1361 ft | 146 kts | 234° |
| 2026-05-03 20:15 | 51.59102 | 6.08757 | 1809 ft | 143 kts | 243° |
| 2026-05-03 20:15 | 51.58659 | 6.07330 | 2209 ft | 143 kts | 246° |
| 2026-05-03 20:16 | 51.58460 | 6.05686 | 2401 ft | 160 kts | 257° |
| 2026-05-03 20:16 | 51.58191 | 6.03862 | 2399 ft | 174 kts | 252° |
| 2026-05-03 20:16 | 51.57839 | 6.01952 | 2398 ft | 181 kts | 251° |
| 2026-05-03 20:16 | 51.57446 | 6.00016 | 2396 ft | 183 kts | 250° |
| 2026-05-03 20:17 | 51.57033 | 5.98073 | 2394 ft | 183 kts | 249° |
| 2026-05-03 20:17 | 51.56608 | 5.96153 | 2392 ft | 182 kts | 248° |
| 2026-05-03 20:17 | 51.56168 | 5.94249 | 2392 ft | 182 kts | 248° |
| 2026-05-03 20:17 | 51.55710 | 5.92352 | 2391 ft | 182 kts | 247° |
| 2026-05-03 20:18 | 51.55236 | 5.90470 | 2386 ft | 181 kts | 246° |
| 2026-05-03 20:18 | 51.54746 | 5.88605 | 2387 ft | 181 kts | 245° |
| 2026-05-03 20:18 | 51.54240 | 5.86757 | 2387 ft | 181 kts | 245° |
| 2026-05-03 20:18 | 51.53719 | 5.84918 | 2388 ft | 181 kts | 244° |
| 2026-05-03 20:19 | 51.53181 | 5.83090 | 2390 ft | 181 kts | 243° |
| 2026-05-03 20:19 | 51.52626 | 5.81277 | 2391 ft | 181 kts | 243° |
| 2026-05-03 20:19 | 51.52056 | 5.79475 | 2391 ft | 181 kts | 242° |
| 2026-05-03 20:19 | 51.51468 | 5.77684 | 2391 ft | 181 kts | 241° |
| 2026-05-03 20:20 | 51.51010 | 5.75807 | 2380 ft | 185 kts | 262° |
| 2026-05-03 20:20 | 51.51113 | 5.73736 | 2381 ft | 187 kts | 275° |
| 2026-05-03 20:20 | 51.51303 | 5.71664 | 2384 ft | 188 kts | 275° |
| 2026-05-03 20:20 | 51.51497 | 5.69587 | 2384 ft | 188 kts | 275° |
| 2026-05-03 20:21 | 51.51692 | 5.67514 | 2385 ft | 188 kts | 275° |
| 2026-05-03 20:21 | 51.51884 | 5.65438 | 2385 ft | 188 kts | 275° |
| 2026-05-03 20:21 | 51.52075 | 5.63370 | 2387 ft | 188 kts | 275° |
| 2026-05-03 20:21 | 51.52267 | 5.61292 | 2386 ft | 188 kts | 275° |
| 2026-05-03 20:22 | 51.52462 | 5.59214 | 2389 ft | 188 kts | 275° |
| 2026-05-03 20:22 | 51.52656 | 5.57136 | 2389 ft | 188 kts | 275° |
| 2026-05-03 20:22 | 51.52851 | 5.55055 | 2389 ft | 188 kts | 275° |
| 2026-05-03 20:22 | 51.53042 | 5.53002 | 2390 ft | 188 kts | 275° |
| 2026-05-03 20:23 | 51.53235 | 5.50989 | 2386 ft | 176 kts | 275° |
| 2026-05-03 20:23 | 51.53422 | 5.49106 | 2379 ft | 167 kts | 275° |
| 2026-05-03 20:23 | 51.53602 | 5.47257 | 2270 ft | 168 kts | 272° |
| 2026-05-03 20:23 | 51.53345 | 5.45471 | 2033 ft | 168 kts | 242° |
| 2026-05-03 20:24 | 51.52867 | 5.43795 | 1891 ft | 164 kts | 239° |
| 2026-05-03 20:24 | 51.51995 | 5.42693 | 1792 ft | 166 kts | 199° |
| 2026-05-03 20:24 | 51.50812 | 5.42619 | 1503 ft | 173 kts | 181° |
| 2026-05-03 20:24 | 51.49701 | 5.42512 | 1429 ft | 141 kts | 201° |
| 2026-05-03 20:25 | 51.48888 | 5.41827 | 1118 ft | 113 kts | 212° |
| 2026-05-03 20:25 | 51.48338 | 5.41247 | 771 ft | 88 kts | 217° |
| 2026-05-03 20:25 | 51.47851 | 5.40622 | 567 ft | 88 kts | 216° |
| 2026-05-03 20:25 | 51.47362 | 5.40089 | 451 ft | 82 kts | 213° |
| 2026-05-03 20:26 | 51.46908 | 5.39590 | 347 ft | 79 kts | 210° |
| 2026-05-03 20:26 | 51.46431 | 5.39046 | 261 ft | 89 kts | 211° |
| 2026-05-03 20:26 | 51.45909 | 5.38457 | 121 ft | 90 kts | 213° |
| 2026-05-03 20:26 | 51.45431 | 5.37920 | 76 ft | 77 kts | 213° |
| 2026-05-03 20:27 | 51.45059 | 5.37511 | 68 ft | 52 kts | 216° |
| 2026-05-03 20:27 | 51.44794 | 5.37216 | 75 ft | 41 kts | 217° |
| 2026-05-03 20:27 | 51.44761 | 5.37042 | 70 ft | 13 kts | 310° |
| 2026-05-03 20:27 | 51.44860 | 5.37004 | 78 ft | 24 kts | 36° |
| 2026-05-03 20:28 | 51.45038 | 5.37202 | 73 ft | 38 kts | 35° |
| 2026-05-03 20:28 | 51.45246 | 5.37438 | 69 ft | 16 kts | 26° |
| 2026-05-03 20:28 | 51.45310 | 5.37343 | 69 ft | 9 kts | 335° |
| 2026-05-03 20:28 | 51.45382 | 5.37375 | 67 ft | 11 kts | 31° |
| 2026-05-03 20:29 | 51.45395 | 5.37434 | 73 ft | 0 kts | 119° |